Time;durP1;ratioP1;P1;durP2;ratioP2;P2;SDS_P1;SDS_P2;PMS_P1;PMS_P2;Temp;Humidity;BMP_temperature;BMP_pressure;BME280_temperature;BME280_humidity;BME280_pressure;Samples;Min_cycle;Max_cycle;Signal;HPM_P1;HPM_P2
2022/04/19 00:00:44;;;;;;;2.38;1.50;;;;;;;8.37;47.55;96384.22;5052737;28;20052;-77
2022/04/19 00:03:14;;;;;;;3.45;1.80;;;;;;;8.38;47.45;96383.25;5053441;28;20049;-77
2022/04/19 00:05:42;;;;;;;2.58;1.60;;;;;;;8.33;47.60;96378.56;5053815;28;20049;-77
2022/04/19 00:08:11;;;;;;;2.78;1.73;;;;;;;8.24;47.89;96377.81;5052797;28;20520;-77
2022/04/19 00:10:41;;;;;;;2.40;1.73;;;;;;;8.16;47.93;96377.84;5053329;28;20057;-77
2022/04/19 00:13:12;;;;;;;2.55;2.00;;;;;;;8.06;48.20;96377.25;5053272;28;20049;-76
2022/04/19 00:15:39;;;;;;;2.28;1.60;;;;;;;7.98;48.16;96370.34;5053046;28;20051;-77
2022/04/19 00:18:09;;;;;;;4.65;2.20;;;;;;;7.92;48.55;96370.22;5053107;28;20588;-77
2022/04/19 00:20:38;;;;;;;3.97;1.88;;;;;;;7.86;48.49;96370.88;5052084;28;20072;-77
2022/04/19 00:23:12;;;;;;;2.53;1.50;;;;;;;7.80;48.91;96365.38;5051461;28;20062;-77
2022/04/19 00:25:41;;;;;;;3.85;1.60;;;;;;;7.77;49.02;96360.53;5051450;28;20061;-77
2022/04/19 00:28:09;;;;;;;2.83;1.77;;;;;;;7.74;49.09;96360.88;5050433;28;20041;-77
2022/04/19 00:30:37;;;;;;;3.40;2.00;;;;;;;7.72;49.04;96359.41;5051225;28;20422;-77
2022/04/19 00:33:05;;;;;;;1.92;1.52;;;;;;;7.70;48.88;96354.41;5052347;28;20044;-77
2022/04/19 00:35:33;;;;;;;2.15;1.55;;;;;;;7.69;48.88;96357.97;5053108;28;20598;-77
2022/04/19 00:38:01;;;;;;;3.08;1.67;;;;;;;7.67;49.04;96352.13;5052751;28;20045;-77
2022/04/19 00:40:28;;;;;;;3.30;2.08;;;;;;;7.65;48.76;96348.91;5052971;28;20052;-77
2022/04/19 00:42:58;;;;;;;1.77;1.65;;;;;;;7.59;49.20;96349.59;5053091;28;20044;-77
2022/04/19 00:45:25;;;;;;;2.45;1.60;;;;;;;7.56;49.26;96345.53;5053183;28;20049;-77
2022/04/19 00:47:54;;;;;;;2.85;2.30;;;;;;;7.61;48.99;96345.06;5052124;28;20055;-77
2022/04/19 00:50:23;;;;;;;3.05;2.17;;;;;;;7.62;48.95;96347.44;5051623;28;20059;-77
2022/04/19 00:52:52;;;;;;;3.72;1.90;;;;;;;7.61;48.98;96345.06;5050869;28;20049;-77
2022/04/19 00:55:20;;;;;;;2.78;2.00;;;;;;;7.55;49.50;96345.72;5050293;28;20100;-76
2022/04/19 00:57:47;;;;;;;2.15;1.60;;;;;;;7.53;49.61;96342.47;5049003;28;20064;-76
2022/04/19 01:00:17;;;;;;;2.63;2.03;;;;;;;7.51;49.61;96345.22;5050636;28;20502;-77
2022/04/19 01:02:44;;;;;;;2.15;1.77;;;;;;;7.51;49.79;96336.66;5049032;28;20052;-76
2022/04/19 01:05:12;;;;;;;1.92;1.67;;;;;;;7.54;50.12;96331.09;5050704;28;20075;-76
2022/04/19 01:07:40;;;;;;;3.33;1.85;;;;;;;7.56;49.63;96327.34;5051435;28;20055;-77
2022/04/19 01:10:08;;;;;;;3.72;2.13;;;;;;;7.55;49.55;96330.16;5050278;28;20053;-76
2022/04/19 01:15:22;;;;;;;4.40;2.33;;;;;;;7.57;49.68;96328.19;5051860;28;20049;-77
2022/04/19 01:17:50;;;;;;;4.70;1.80;;;;;;;7.59;49.69;96318.44;5051332;28;20052;-77
2022/04/19 01:20:18;;;;;;;3.10;1.70;;;;;;;7.58;49.90;96320.22;5051958;28;20052;-76
2022/04/19 01:22:49;;;;;;;5.72;2.70;;;;;;;7.57;49.88;96315.22;5051728;28;20518;-77
2022/04/19 01:25:19;;;;;;;3.25;1.60;;;;;;;7.57;49.41;96312.63;5052168;28;20064;-77
2022/04/19 01:27:47;;;;;;;3.58;1.70;;;;;;;7.53;49.51;96308.75;5051609;28;20415;-77
2022/04/19 01:30:17;;;;;;;2.08;1.83;;;;;;;7.50;49.45;96311.66;5052144;28;20045;-76
2022/04/19 01:32:44;;;;;;;3.92;1.63;;;;;;;7.43;49.67;96308.94;5051736;28;20124;-77
2022/04/19 01:35:13;;;;;;;2.30;1.70;;;;;;;7.36;49.53;96300.22;5052680;28;20055;-77
2022/04/19 01:37:42;;;;;;;3.95;2.10;;;;;;;7.32;49.89;96299.72;5051730;28;20056;-77
2022/04/19 01:40:18;;;;;;;2.10;1.55;;;;;;;7.26;49.96;96292.63;5052105;28;20049;-77
2022/04/19 01:42:47;;;;;;;1.67;1.55;;;;;;;7.20;49.99;96293.31;5051295;28;20442;-76
2022/04/19 01:45:15;;;;;;;2.65;2.10;;;;;;;7.18;50.31;96295.25;5051181;28;20132;-77
2022/04/19 01:47:43;;;;;;;1.70;1.50;;;;;;;7.14;50.06;96291.38;5051489;28;20053;-76
2022/04/19 01:50:13;;;;;;;2.53;1.70;;;;;;;7.11;50.37;96289.94;5051219;28;20045;-76
2022/04/19 01:52:42;;;;;;;2.70;2.13;;;;;;;7.09;50.27;96291.09;5051882;28;20053;-77
2022/04/19 01:55:13;;;;;;;2.30;1.75;;;;;;;7.06;50.61;96299.19;5051741;28;20051;-77
2022/04/19 01:57:42;;;;;;;4.40;2.47;;;;;;;7.01;50.60;96292.69;5050970;28;20049;-77
2022/04/19 02:00:11;;;;;;;2.92;1.88;;;;;;;6.94;51.12;96288.38;5052048;28;20060;-76
2022/04/19 02:02:43;;;;;;;2.13;1.63;;;;;;;6.87;51.21;96288.22;5051505;28;20090;-76
2022/04/19 02:05:11;;;;;;;5.85;2.20;;;;;;;6.80;50.87;96282.09;5051544;28;20775;-77
2022/04/19 02:07:39;;;;;;;3.22;1.70;;;;;;;6.78;51.03;96286.63;5051219;28;20053;-76
2022/04/19 02:10:09;;;;;;;2.08;1.65;;;;;;;6.77;51.24;96279.81;5055271;28;20518;-77
2022/04/19 02:12:39;;;;;;;1.73;1.63;;;;;;;6.71;51.26;96275.28;5055308;28;20040;-77
2022/04/19 02:15:07;;;;;;;1.92;1.60;;;;;;;6.65;51.38;96276.75;5055285;28;20051;-77
2022/04/19 02:17:44;;;;;;;3.60;2.22;;;;;;;6.61;52.13;96270.28;5078096;28;20052;-76
2022/04/19 02:20:13;;;;;;;2.42;1.77;;;;;;;6.64;51.47;96274.31;5076168;28;20471;-77
2022/04/19 02:22:41;;;;;;;3.03;1.90;;;;;;;6.68;51.59;96276.44;5055902;28;20045;-76
2022/04/19 02:25:11;;;;;;;3.42;2.05;;;;;;;6.73;51.63;96262.97;5055545;28;20049;-77
2022/04/19 02:27:42;;;;;;;4.68;2.03;;;;;;;6.78;51.80;96268.47;5055102;28;20041;-76
2022/04/19 02:30:13;;;;;;;5.45;2.50;;;;;;;6.80;51.38;96269.13;5055663;28;20045;-77
2022/04/19 02:32:42;;;;;;;3.47;2.13;;;;;;;6.82;51.21;96267.16;5055732;28;20057;-77
2022/04/19 02:35:10;;;;;;;2.67;1.85;;;;;;;6.86;51.33;96272.81;5054970;28;20332;-77
2022/04/19 02:37:38;;;;;;;4.32;2.05;;;;;;;6.85;51.05;96272.03;5054863;28;20049;-77
2022/04/19 02:40:07;;;;;;;2.00;1.80;;;;;;;6.83;51.33;96276.56;5055224;28;20072;-77
2022/04/19 02:42:36;;;;;;;3.47;2.10;;;;;;;6.81;51.35;96283.69;5055125;28;20433;-76
2022/04/19 02:45:05;;;;;;;2.22;1.85;;;;;;;6.77;51.74;96278.03;5055221;28;20522;-77
2022/04/19 02:47:33;;;;;;;3.38;2.33;;;;;;;6.81;51.54;96276.72;5056176;28;20060;-77
2022/04/19 02:50:01;;;;;;;4.63;2.28;;;;;;;6.85;51.55;96282.38;5069444;28;20055;-77
2022/04/19 02:52:29;;;;;;;2.40;1.80;;;;;;;6.90;51.46;96274.91;5069121;28;20052;-77
2022/04/19 02:54:56;;;;;;;3.47;1.70;;;;;;;6.93;51.06;96279.78;5069434;28;20041;-77
2022/04/19 02:57:24;;;;;;;2.53;1.92;;;;;;;6.95;51.07;96270.06;5067755;28;20056;-77
2022/04/19 02:59:51;;;;;;;2.92;2.10;;;;;;;6.93;51.04;96268.56;5067268;28;20059;-76
2022/04/19 03:02:20;;;;;;;2.42;1.92;;;;;;;6.93;51.21;96277.19;5055839;28;20049;-77
2022/04/19 03:04:48;;;;;;;3.05;2.08;;;;;;;6.94;50.87;96270.22;5055721;28;20045;-76
2022/04/19 03:07:15;;;;;;;3.42;1.88;;;;;;;6.87;51.25;96279.63;5054774;28;20474;-77
2022/04/19 03:09:43;;;;;;;2.78;1.80;;;;;;;6.78;50.97;96271.06;5054498;28;20132;-77
2022/04/19 03:12:11;;;;;;;3.92;1.95;;;;;;;6.73;51.46;96273.34;5054665;28;20069;-77
2022/04/19 03:14:39;;;;;;;3.28;1.83;;;;;;;6.69;51.25;96272.03;5054102;28;20059;-77
2022/04/19 03:17:07;;;;;;;3.78;1.58;;;;;;;6.70;51.59;96268.50;5054280;28;20056;-77
2022/04/19 03:19:36;;;;;;;2.50;1.55;;;;;;;6.73;51.84;96262.97;5053656;28;20041;-76
2022/04/19 03:22:04;;;;;;;3.15;1.98;;;;;;;6.79;51.89;96260.50;5054402;28;20049;-77
2022/04/19 03:30:08;;;;;;;4.93;2.28;;;;;;;7.05;51.23;96253.47;5040635;28;20055;-76
2022/04/19 03:32:37;;;;;;;4.80;2.13;;;;;;;7.10;51.33;96253.78;5054222;28;20059;-77
2022/04/19 03:35:06;;;;;;;4.30;2.20;;;;;;;7.13;51.23;96256.84;5054000;28;20542;-77
2022/04/19 03:37:34;;;;;;;7.97;2.72;;;;;;;7.15;50.89;96254.91;5053421;28;20049;-76
2022/04/19 03:40:01;;;;;;;4.47;2.60;;;;;;;7.13;50.68;96261.25;5054059;28;20045;-76
2022/04/19 03:42:30;;;;;;;3.70;2.78;;;;;;;7.08;50.83;96255.72;5053965;28;20045;-76
2022/04/19 03:44:57;;;;;;;3.17;2.15;;;;;;;7.01;50.97;96261.59;5053919;28;20060;-77
2022/04/19 03:47:25;;;;;;;3.83;2.13;;;;;;;6.94;51.25;96258.06;5053264;28;20507;-77
2022/04/19 03:49:52;;;;;;;2.58;2.33;;;;;;;6.88;51.17;96260.50;5053661;28;20049;-77
2022/04/19 03:52:21;;;;;;;3.90;2.10;;;;;;;6.84;51.47;96264.41;5053093;28;20052;-76
2022/04/19 03:54:49;;;;;;;3.28;2.45;;;;;;;6.85;51.87;96256.47;5053986;28;20044;-77
2022/04/19 03:57:17;;;;;;;3.30;2.15;;;;;;;6.88;51.80;96250.13;5053183;28;20061;-76
2022/04/19 03:59:45;;;;;;;3.22;2.38;;;;;;;6.91;51.33;96250.63;5053495;28;20044;-77
2022/04/19 04:02:16;;;;;;;5.82;2.55;;;;;;;6.94;51.51;96250.28;5054177;28;20106;-77
2022/04/19 04:04:43;;;;;;;3.42;2.00;;;;;;;7.00;51.49;96249.59;5053379;28;20053;-77
2022/04/19 04:07:11;;;;;;;2.67;2.08;;;;;;;7.08;51.36;96255.72;5052966;28;20645;-77
2022/04/19 04:09:40;;;;;;;2.92;2.53;;;;;;;7.11;51.40;96255.41;5053208;28;20048;-77
2022/04/19 04:12:11;;;;;;;3.67;2.80;;;;;;;7.13;51.03;96250.88;5053088;28;20052;-77
2022/04/19 04:14:40;;;;;;;2.30;1.90;;;;;;;7.10;50.89;96258.97;5053198;28;20064;-77
2022/04/19 04:17:08;;;;;;;3.40;2.38;;;;;;;7.07;51.19;96260.13;5052317;28;20049;-77
2022/04/19 04:19:35;;;;;;;4.50;2.35;;;;;;;7.04;51.32;96252.69;5053213;28;20431;-76
2022/04/19 04:22:03;;;;;;;3.05;2.10;;;;;;;7.02;51.57;96257.22;5053568;28;20053;-77
2022/04/19 04:24:31;;;;;;;4.57;2.90;;;;;;;7.00;51.67;96257.38;5052733;28;20041;-77
2022/04/19 04:27:00;;;;;;;3.53;2.33;;;;;;;6.96;51.48;96248.31;5052445;28;20045;-76
2022/04/19 04:29:28;;;;;;;3.35;2.30;;;;;;;6.97;51.72;96249.91;5052845;28;20088;-77
2022/04/19 04:31:56;;;;;;;3.90;2.10;;;;;;;7.04;52.01;96251.84;5053066;28;20522;-76
2022/04/19 04:34:23;;;;;;;3.22;2.50;;;;;;;7.10;51.49;96253.78;5053229;28;20041;-76
2022/04/19 04:36:51;;;;;;;3.35;3.05;;;;;;;7.13;51.68;96259.44;5052247;28;20053;-77
2022/04/19 04:39:18;;;;;;;5.22;2.97;;;;;;;7.15;51.46;96248.88;5052681;28;20051;-77
2022/04/19 04:41:46;;;;;;;4.93;2.72;;;;;;;7.15;51.41;96251.47;5076881;22;20533;-79
2022/04/19 04:44:15;;;;;;;3.42;2.85;;;;;;;7.13;51.72;96253.47;5055448;28;20052;-79
2022/04/19 04:49:37;;;;;;;3.45;2.67;;;;;;;7.12;52.35;96259.59;5056008;28;20423;-79
2022/04/19 04:52:06;;;;;;;6.20;3.55;;;;;;;7.16;51.81;96258.31;5057560;28;20128;-79
2022/04/19 04:54:34;;;;;;;3.03;2.53;;;;;;;7.14;51.36;96255.06;5054005;28;20049;-78
2022/04/19 04:57:01;;;;;;;4.80;3.20;;;;;;;7.11;51.42;96258.00;5054209;28;20047;-79
2022/04/19 04:59:30;;;;;;;5.03;3.15;;;;;;;7.11;51.86;96255.41;5053499;28;20065;-77
2022/04/19 05:01:58;;;;;;;4.68;2.90;;;;;;;7.13;52.21;96258.66;5056419;28;20427;-81
2022/04/19 05:04:26;;;;;;;5.53;3.33;;;;;;;7.17;51.80;96262.50;5058296;28;20049;-81
2022/04/19 05:06:54;;;;;;;5.93;3.65;;;;;;;7.19;51.36;96257.94;5058980;28;20053;-78
2022/04/19 05:09:21;;;;;;;8.77;4.13;;;;;;;7.21;51.80;96261.19;5053792;28;20049;-78
2022/04/19 05:11:50;;;;;;;5.57;4.00;;;;;;;7.25;51.71;96259.06;5053798;28;20040;-80
2022/04/19 05:14:18;;;;;;;4.65;3.38;;;;;;;7.26;51.68;96256.31;5055097;28;20057;-80
2022/04/19 05:16:47;;;;;;;4.57;3.38;;;;;;;7.28;51.37;96264.75;5053876;28;20048;-78
2022/04/19 05:19:14;;;;;;;3.63;3.00;;;;;;;7.30;51.71;96265.34;5055910;28;20048;-80
2022/04/19 05:21:45;;;;;;;7.85;4.18;;;;;;;7.29;51.37;96260.34;5056807;28;20123;-78
2022/04/19 05:24:13;;;;;;;6.78;3.88;;;;;;;7.23;51.62;96265.22;5057044;28;20060;-81
2022/04/19 05:26:41;;;;;;;6.70;4.07;;;;;;;7.21;51.77;96256.81;5058826;28;20534;-80
2022/04/19 05:29:08;;;;;;;6.63;4.07;;;;;;;7.24;52.18;96260.88;5047002;28;20063;-79
2022/04/19 05:31:37;;;;;;;6.10;3.47;;;;;;;7.31;52.60;96266.19;5055652;28;20037;-78
2022/04/19 05:34:06;;;;;;;11.63;4.43;;;;;;;7.39;52.85;96263.53;5060144;28;20053;-81
2022/04/19 05:36:35;;;;;;;10.65;3.72;;;;;;;7.43;52.07;96260.44;5059564;28;20048;-80
2022/04/19 05:39:03;;;;;;;6.53;3.70;;;;;;;7.41;52.09;96267.59;5060259;28;20051;-78
2022/04/19 05:41:31;;;;;;;6.10;3.60;;;;;;;7.41;53.29;96259.81;5058759;28;20052;-79
2022/04/19 05:43:59;;;;;;;5.95;4.22;;;;;;;7.39;52.26;96272.16;5059403;28;20063;-80
2022/04/19 05:46:27;;;;;;;7.97;4.65;;;;;;;7.31;52.37;96272.19;5058188;28;20057;-78
2022/04/19 05:48:55;;;;;;;9.82;4.60;;;;;;;7.21;52.37;96271.56;5059315;28;20506;-81
2022/04/19 05:51:23;;;;;;;8.75;4.78;;;;;;;7.11;52.64;96276.16;5058831;28;20049;-80
2022/04/19 05:53:51;;;;;;;6.28;3.80;;;;;;;7.05;52.98;96282.00;5060615;28;20057;-79
2022/04/19 05:56:20;;;;;;;5.25;3.92;;;;;;;6.95;53.13;96287.38;5057008;28;20073;-80
2022/04/19 05:58:47;;;;;;;8.30;4.93;;;;;;;6.92;53.53;96278.16;5053727;28;20056;-78
2022/04/19 06:01:15;;;;;;;7.53;4.47;;;;;;;6.93;54.22;96269.41;5059612;28;20045;-77
2022/04/19 06:06:30;;;;;;;6.55;4.07;;;;;;;7.10;53.79;96275.31;5058227;28;20049;-80
2022/04/19 06:08:57;;;;;;;10.35;4.45;;;;;;;7.16;53.71;96279.06;5045914;28;20061;-80
2022/04/19 06:11:25;;;;;;;4.80;3.25;;;;;;;7.22;53.72;96278.38;5044786;28;20044;-77
2022/04/19 06:13:53;;;;;;;5.78;4.07;;;;;;;7.30;53.51;96277.53;5042626;28;20056;-78
2022/04/19 06:16:20;;;;;;;3.97;3.25;;;;;;;7.39;53.86;96279.94;5053166;28;20055;-78
2022/04/19 06:18:48;;;;;;;6.88;4.13;;;;;;;7.49;53.23;96273.72;5049124;28;20060;-77
2022/04/19 06:21:16;;;;;;;6.25;3.80;;;;;;;7.56;53.29;96274.66;5036191;28;20055;-77
2022/04/19 06:23:45;;;;;;;9.20;4.32;;;;;;;7.65;53.42;96278.81;5036053;28;20059;-77
2022/04/19 06:26:12;;;;;;;4.90;3.63;;;;;;;7.74;52.79;96275.19;5050641;28;20053;-81
2022/04/19 06:28:40;;;;;;;6.45;4.03;;;;;;;7.83;52.61;96271.56;5051216;28;20045;-78
2022/04/19 06:31:07;;;;;;;6.68;4.05;;;;;;;7.91;52.98;96267.28;5053634;28;20038;-82
2022/04/19 06:33:36;;;;;;;11.82;4.63;;;;;;;8.00;52.81;96279.25;5070135;28;20033;-77
2022/04/19 06:36:05;;;;;;;5.70;4.00;;;;;;;8.09;52.71;96270.44;5061396;28;20045;-78
2022/04/19 06:38:33;;;;;;;4.55;3.70;;;;;;;8.19;53.15;96270.97;5055576;28;20053;-80
2022/04/19 06:41:02;;;;;;;5.85;3.75;;;;;;;8.28;52.96;96271.72;5054838;28;20055;-78
2022/04/19 06:43:31;;;;;;;4.68;3.90;;;;;;;8.39;52.79;96273.91;5052787;28;20054;-81
2022/04/19 06:45:59;;;;;;;6.25;3.92;;;;;;;8.51;52.98;96268.31;5051586;28;20503;-81
2022/04/19 06:48:26;;;;;;;7.70;4.00;;;;;;;8.60;52.55;96273.25;5057082;28;20128;-80
2022/04/19 06:50:54;;;;;;;6.43;3.92;;;;;;;8.70;51.32;96273.00;5056762;28;20049;-78
2022/04/19 06:53:41;;;;;;;16.95;4.72;;;;;;;8.82;50.31;96270.78;5057233;28;20107;-84
2022/04/19 06:56:10;;;;;;;4.95;3.88;;;;;;;8.92;49.78;96271.31;5058432;28;20434;-79
2022/04/19 06:58:39;;;;;;;7.57;4.07;;;;;;;9.04;49.47;96264.66;5057842;28;20041;-81
2022/04/19 07:01:07;;;;;;;5.45;3.63;;;;;;;9.16;49.07;96261.59;5054466;28;20127;-81
2022/04/19 07:03:35;;;;;;;6.85;3.78;;;;;;;9.32;48.32;96264.03;5061575;28;20059;-84
2022/04/19 07:06:03;;;;;;;9.05;4.30;;;;;;;9.45;48.14;96264.19;5060670;28;20406;-78
2022/04/19 07:08:31;;;;;;;4.97;3.65;;;;;;;9.60;46.89;96268.53;5060661;28;20059;-79
2022/04/19 07:11:00;;;;;;;4.53;3.13;;;;;;;9.74;47.50;96264.28;5060282;28;20051;-80
2022/04/19 07:13:29;;;;;;;7.25;4.18;;;;;;;9.91;46.71;96270.88;5061120;28;20056;-79
2022/04/19 07:15:57;;;;;;;6.18;3.80;;;;;;;10.06;47.10;96263.81;5056513;28;20396;-79
2022/04/19 07:18:25;;;;;;;5.97;4.25;;;;;;;10.23;47.08;96263.53;5061725;28;20075;-79
2022/04/19 07:26:45;;;;;;;5.72;4.18;;;;;;;10.71;46.61;96253.31;5056910;28;20068;-77
2022/04/19 07:29:15;;;;;;;7.57;4.10;;;;;;;10.88;45.78;96257.22;5059909;28;20049;-77
2022/04/19 07:31:45;;;;;;;6.03;4.03;;;;;;;11.05;45.68;96256.94;5058647;28;20040;-78
2022/04/19 07:34:14;;;;;;;4.57;3.75;;;;;;;11.21;45.27;96253.19;5057924;28;20048;-78
2022/04/19 07:36:42;;;;;;;7.97;3.78;;;;;;;11.36;45.46;96256.47;5057949;28;20052;-77
2022/04/19 07:39:11;;;;;;;7.43;4.45;;;;;;;11.51;44.92;96262.34;5058512;28;20055;-78
2022/04/19 07:41:39;;;;;;;6.60;4.13;;;;;;;11.65;44.59;96257.97;5058862;28;20047;-77
2022/04/19 07:44:14;;;;;;;12.40;4.60;;;;;;;11.81;44.05;96253.41;5056518;28;20072;-79
2022/04/19 07:46:43;;;;;;;4.70;3.80;;;;;;;11.94;44.02;96256.88;5057619;28;20045;-78
2022/04/19 07:49:12;;;;;;;5.22;3.78;;;;;;;12.09;45.44;96259.31;5057864;28;20136;-77
2022/04/19 07:51:39;;;;;;;4.72;3.40;;;;;;;12.24;45.14;96260.91;5060416;28;20057;-78
2022/04/19 07:54:07;;;;;;;6.63;4.03;;;;;;;12.38;44.20;96259.13;5059103;28;20212;-77
2022/04/19 07:56:34;;;;;;;7.72;3.78;;;;;;;12.52;43.69;96258.91;5058288;28;20498;-78
2022/04/19 07:59:03;;;;;;;5.38;4.13;;;;;;;12.66;43.13;96259.72;5059523;28;20056;-79
2022/04/19 08:01:32;;;;;;;5.03;4.03;;;;;;;12.78;42.57;96258.09;5059341;28;20052;-79
2022/04/19 08:04:01;;;;;;;4.78;3.85;;;;;;;12.92;42.19;96258.06;5047362;28;20061;-78
2022/04/19 08:06:29;;;;;;;5.75;3.95;;;;;;;13.05;41.84;96258.03;5057930;28;20045;-78
2022/04/19 08:08:56;;;;;;;5.55;3.40;;;;;;;13.17;41.51;96264.25;5059121;28;20051;-78
2022/04/19 08:11:24;;;;;;;5.22;3.97;;;;;;;13.30;41.47;96252.16;5057800;28;20049;-80
2022/04/19 08:13:51;;;;;;;4.88;3.72;;;;;;;13.43;41.17;96256.53;5058990;28;20055;-77
2022/04/19 08:16:19;;;;;;;5.40;3.50;;;;;;;13.56;41.06;96248.63;5057125;28;20053;-78
2022/04/19 08:18:47;;;;;;;6.65;4.35;;;;;;;13.68;40.07;96246.13;5059442;28;20072;-78
2022/04/19 08:21:16;;;;;;;7.13;4.82;;;;;;;13.78;39.50;96246.50;5061860;28;20083;-77
2022/04/19 08:23:44;;;;;;;6.43;4.13;;;;;;;13.90;39.33;96244.78;5062902;28;20426;-77
2022/04/19 08:26:11;;;;;;;8.25;5.13;;;;;;;13.98;39.42;96241.91;5062326;28;20049;-78
2022/04/19 08:28:40;;;;;;;6.40;4.28;;;;;;;14.08;38.70;96240.66;5062361;28;20051;-78
2022/04/19 08:31:08;;;;;;;7.70;5.30;;;;;;;14.16;38.78;96243.81;5062857;28;20104;-78
2022/04/19 08:33:35;;;;;;;8.75;6.03;;;;;;;14.25;38.21;96241.72;5047522;28;20111;-80
2022/04/19 08:36:03;;;;;;;7.80;5.05;;;;;;;14.33;37.91;96249.34;5051064;28;20533;-79
2022/04/19 08:38:32;;;;;;;8.15;5.25;;;;;;;14.43;37.50;96246.25;5069237;28;20065;-82
2022/04/19 08:41:00;;;;;;;7.40;4.57;;;;;;;14.55;37.49;96241.94;5063913;28;20057;-79
2022/04/19 08:43:28;;;;;;;8.18;5.32;;;;;;;14.69;36.90;96236.56;5064212;28;20051;-79
2022/04/19 08:45:56;;;;;;;7.25;5.20;;;;;;;14.78;36.77;96236.06;5064268;28;20487;-78
2022/04/19 08:48:26;;;;;;;9.45;6.07;;;;;;;14.86;35.62;96234.19;5063409;28;20453;-78
2022/04/19 08:50:55;;;;;;;7.78;5.05;;;;;;;14.90;35.61;96237.97;5063169;28;20060;-78
2022/04/19 08:58:56;;;;;;;6.18;5.00;;;;;;;15.11;35.61;96239.34;5060221;28;20135;-78
2022/04/19 09:01:23;;;;;;;5.97;5.10;;;;;;;15.17;35.85;96235.84;5060198;28;20059;-81
2022/04/19 09:03:51;;;;;;;6.20;5.10;;;;;;;15.24;35.66;96234.78;5059752;28;20052;-79
2022/04/19 09:06:19;;;;;;;8.57;5.88;;;;;;;15.36;35.52;96231.41;5059200;28;20103;-78
2022/04/19 09:09:08;;;;;;;6.03;5.13;;;;;;;15.46;35.39;96231.69;5061312;28;20099;-78
2022/04/19 09:11:37;;;;;;;7.75;6.03;;;;;;;15.53;35.31;96232.41;5060432;28;20049;-78
2022/04/19 09:14:05;;;;;;;11.05;6.10;;;;;;;15.58;35.35;96224.66;5059324;28;20041;-77
2022/04/19 09:16:34;;;;;;;7.28;5.05;;;;;;;15.65;35.07;96220.13;5059307;28;20072;-76
2022/04/19 09:19:01;;;;;;;8.23;5.72;;;;;;;15.74;35.24;96227.72;5053613;28;20429;-77
2022/04/19 09:21:37;;;;;;;9.18;5.70;;;;;;;15.79;34.15;96219.97;5059559;28;20068;-78
2022/04/19 09:24:16;;;;;;;8.07;5.22;;;;;;;15.86;34.52;96225.94;5061329;28;20045;-79
2022/04/19 09:26:45;;;;;;;7.28;5.22;;;;;;;15.91;34.19;96223.41;5059823;28;20056;-79
2022/04/19 09:29:18;;;;;;;8.85;5.18;;;;;;;15.97;33.91;96224.38;5059339;28;20049;-78
2022/04/19 09:31:47;;;;;;;6.35;5.25;;;;;;;16.00;33.49;96214.16;5062311;28;20084;-79
2022/04/19 09:34:27;;;;;;;6.55;5.10;;;;;;;16.09;33.67;96204.13;5058574;28;20392;-79
2022/04/19 09:37:06;;;;;;;5.63;4.63;;;;;;;16.18;33.58;96201.97;5045354;28;20080;-77
2022/04/19 09:39:36;;;;;;;4.85;4.35;;;;;;;16.25;33.67;96197.41;5057681;28;20051;-77
2022/04/19 09:42:06;;;;;;;6.03;5.05;;;;;;;16.35;33.13;96207.38;5057678;28;20047;-78
2022/04/19 09:44:38;;;;;;;6.97;5.55;;;;;;;16.41;32.22;96206.47;5058335;28;20043;-79
2022/04/19 09:47:07;;;;;;;6.95;4.68;;;;;;;16.42;32.94;96202.78;5060474;28;20407;-79
2022/04/19 09:49:44;;;;;;;7.45;5.55;;;;;;;16.45;32.32;96203.16;5060155;28;20067;-78
2022/04/19 09:52:36;;;;;;;6.53;5.25;;;;;;;16.50;32.58;96197.19;5060810;28;20041;-80
2022/04/19 09:55:05;;;;;;;6.28;5.40;;;;;;;16.57;33.36;96194.44;5058714;28;20049;-79
2022/04/19 09:57:36;;;;;;;6.43;4.88;;;;;;;16.65;32.51;96194.09;5060900;28;20503;-79
2022/04/19 10:00:06;;;;;;;5.45;4.18;;;;;;;16.71;31.44;96198.47;5060178;28;20048;-78
2022/04/19 10:08:21;;;;;;;4.47;3.83;;;;;;;16.99;31.38;96183.78;5069259;28;20045;-84
2022/04/19 10:10:50;;;;;;;5.35;3.97;;;;;;;17.07;30.94;96178.94;5057551;28;20051;-85
2022/04/19 10:13:23;;;;;;;6.53;3.95;;;;;;;17.11;30.78;96183.75;5057126;28;20048;-80
2022/04/19 10:15:51;;;;;;;5.80;4.22;;;;;;;17.16;31.72;96175.94;5056798;28;20109;-78
2022/04/19 10:18:19;;;;;;;5.00;4.05;;;;;;;17.21;31.44;96176.06;5059223;28;20052;-79
2022/04/19 10:20:54;;;;;;;5.13;3.72;;;;;;;17.27;30.64;96178.56;5057684;28;20060;-77
2022/04/19 10:23:34;;;;;;;4.22;3.83;;;;;;;17.33;30.28;96176.81;5038535;28;20053;-77
2022/04/19 10:26:13;;;;;;;6.43;3.90;;;;;;;17.41;31.09;96180.94;5049067;28;20055;-78
2022/04/19 10:28:42;;;;;;;4.95;3.38;;;;;;;17.46;30.06;96173.09;5056675;28;20112;-78
2022/04/19 10:31:11;;;;;;;4.00;3.15;;;;;;;17.40;29.86;96174.84;5052127;28;20049;-77
2022/04/19 10:33:50;;;;;;;6.35;3.42;;;;;;;17.39;29.29;96161.91;5060916;28;20045;-77
2022/04/19 10:36:20;;;;;;;5.38;3.88;;;;;;;17.41;30.29;96160.63;5062580;28;20045;-77
2022/04/19 10:39:27;;;;;;;4.53;3.75;;;;;;;17.48;29.84;96158.66;5062946;28;20056;-77
2022/04/19 10:41:56;;;;;;;8.50;3.47;;;;;;;17.55;30.36;96165.63;5111753;22;20060;-76
2022/04/19 10:44:31;;;;;;;4.85;4.28;;;;;;;17.60;29.97;96163.88;5042121;28;20148;-77
2022/04/19 10:47:07;;;;;;;6.65;4.10;;;;;;;17.64;30.27;96156.28;5066987;28;20113;-77
2022/04/19 10:49:48;;;;;;;5.00;3.60;;;;;;;17.69;30.30;96154.53;5072981;28;20033;-76
2022/04/19 10:52:46;;;;;;;8.50;3.88;;;;;;;17.74;29.39;96160.94;5042568;28;20430;-77
2022/04/19 10:55:19;;;;;;;4.25;3.33;;;;;;;17.74;29.42;96150.41;5054211;28;20498;-77
2022/04/19 10:58:08;;;;;;;3.55;2.80;;;;;;;17.77;30.58;96153.34;5054702;28;20507;-77
2022/04/19 11:00:49;;;;;;;3.60;3.30;;;;;;;17.81;29.63;96154.47;5055313;28;20057;-77
2022/04/19 11:03:46;;;;;;;5.43;3.67;;;;;;;17.84;30.33;96137.38;5054798;28;20052;-77
2022/04/19 11:06:40;;;;;;;3.90;3.13;;;;;;;17.90;29.87;96147.00;5053386;28;20045;-77
2022/04/19 11:09:21;;;;;;;4.68;2.90;;;;;;;17.91;29.93;96140.69;5040656;28;20049;-77
2022/04/19 11:11:50;;;;;;;3.25;2.95;;;;;;;17.92;29.80;96134.34;5055130;28;20071;-77
2022/04/19 11:14:47;;;;;;;4.50;2.70;;;;;;;17.97;29.59;96139.72;5040747;28;20041;-77
2022/04/19 11:17:24;;;;;;;3.47;3.00;;;;;;;17.96;29.34;96137.31;5049322;28;20044;-76
2022/04/19 11:20:10;;;;;;;3.00;2.33;;;;;;;17.96;29.01;96132.06;5044778;28;20049;-76
2022/04/19 11:22:49;;;;;;;8.70;3.20;;;;;;;17.96;29.34;96132.06;5035071;28;20053;-77
2022/04/19 11:25:36;;;;;;;3.60;2.80;;;;;;;17.93;29.99;96133.34;5053472;28;20533;-77
2022/04/19 11:28:21;;;;;;;5.90;3.83;;;;;;;17.98;29.17;96132.63;5053638;28;20056;-77
2022/04/19 11:31:08;;;;;;;4.43;2.35;;;;;;;17.99;29.29;96121.78;5054510;28;20085;-77
2022/04/19 11:33:38;;;;;;;5.93;3.25;;;;;;;18.00;28.72;96123.41;5054706;28;20418;-76
2022/04/19 11:36:07;;;;;;;3.20;2.90;;;;;;;17.97;29.03;96115.16;5054150;28;20048;-76
2022/04/19 11:38:37;;;;;;;4.10;2.92;;;;;;;17.97;28.85;96118.59;5054285;28;20057;-76
2022/04/19 11:46:48;;;;;;;4.35;2.67;;;;;;;17.87;29.35;96113.19;5052878;28;20060;-77
2022/04/19 11:49:27;;;;;;;4.25;3.20;;;;;;;17.85;29.01;96120.53;5054328;28;20091;-77
2022/04/19 11:51:56;;;;;;;4.80;2.78;;;;;;;17.87;29.45;96106.06;5053235;28;20059;-76
2022/04/19 11:54:25;;;;;;;7.32;3.00;;;;;;;17.91;29.84;96101.91;5054320;28;20048;-78
2022/04/19 11:56:53;;;;;;;5.53;3.40;;;;;;;17.96;29.32;96103.81;5052277;28;20049;-76
2022/04/19 11:59:28;;;;;;;4.80;3.40;;;;;;;17.94;29.32;96092.69;5053775;28;20053;-76
2022/04/19 12:01:56;;;;;;;10.93;4.35;;;;;;;17.92;29.71;96098.22;5053425;28;20049;-77
2022/04/19 12:04:25;;;;;;;4.15;3.55;;;;;;;17.89;29.10;96090.00;5054056;28;20538;-77
2022/04/19 12:06:57;;;;;;;4.10;2.90;;;;;;;17.88;30.52;96096.28;5053188;28;20052;-77
2022/04/19 12:09:25;;;;;;;5.33;2.90;;;;;;;17.91;30.08;96103.75;5053796;28;20049;-77
2022/04/19 12:11:54;;;;;;;3.95;2.95;;;;;;;17.97;29.68;96097.47;5054219;28;20300;-77
2022/04/19 12:14:26;;;;;;;7.40;2.97;;;;;;;17.97;29.76;96097.47;5053663;28;20055;-77
2022/04/19 12:16:58;;;;;;;4.70;3.20;;;;;;;17.98;30.29;96091.19;5053850;28;20049;-77
2022/04/19 12:19:35;;;;;;;3.40;3.10;;;;;;;18.02;30.62;96094.16;5054686;28;20419;-78
2022/04/19 12:22:15;;;;;;;5.22;3.63;;;;;;;18.04;29.93;96092.88;5055792;28;20060;-78
2022/04/19 12:24:45;;;;;;;4.15;3.00;;;;;;;18.04;29.62;96092.88;5054856;28;20049;-77
2022/04/19 12:27:13;;;;;;;3.63;2.78;;;;;;;18.01;29.07;96092.53;5054421;28;20060;-77
2022/04/19 12:29:56;;;;;;;5.50;3.20;;;;;;;17.90;28.84;96091.59;5053168;28;20049;-77